Saturday, December 15, 2018, 10:37 PM EST
Back to Local

KTAN, Taunton Municipal Airport

Location: East Taunton, MA, United States Lat: 41.883
Local Time: 10:37 PM EST ( 3:37 GMT) Lon: -71.017
Time Zone: US/Eastern Elev: 42 ft

Show me the last for .
Show Decoded

2018-12-15 21:52 METAR KTAN 160252Z AUTO 03003KT 10SM CLR 06/02 A3022 RMK AO2 SLP233 T00560017
                 51016 =
2018-12-15 20:52 METAR KTAN 160152Z AUTO 01004KT 10SM CLR 06/02 A3021 RMK AO2 SLP231 T00610022 =
2018-12-15 19:52 METAR KTAN 160052Z AUTO VRB03KT 10SM CLR 07/03 A3021 RMK AO2 SLP230 T00670033 =
2018-12-15 18:52 METAR KTAN 152352Z AUTO VRB04KT 10SM CLR 07/04 A3017 RMK AO2 SLP217 T00720039
                 10117 20061 53011 =
2018-12-15 17:52 METAR KTAN 152252Z AUTO 03006G17KT 10SM CLR 07/04 A3015 RMK AO2 SLP210 T00720044
                 =
2018-12-15 17:14 METAR KTAN 152214Z AUTO 00000KT 9SM CLR 08/07 A3015 RMK AO2 T00780067 =
2018-12-15 17:05 METAR KTAN 152205Z AUTO 00000KT 2SM BR FEW002 07/06 A3015 RMK AO2 VIS 1V5
                 T00670056 =
2018-12-15 17:02 METAR KTAN 152202Z AUTO 00000KT 1 1/4SM BR FEW002 07/06 A3015 RMK AO2 VIS 1/2V3
                 T00670056 =
2018-12-15 16:52 METAR KTAN 152152Z AUTO 00000KT 1/2SM FG VV002 07/06 A3015 RMK AO2 SLP211
                 T00670056 =
2018-12-15 16:29 METAR KTAN 152129Z AUTO 00000KT 1/4SM FG VV002 07/07 A3015 RMK AO2 T00720067 =
2018-12-15 15:52 METAR KTAN 152052Z AUTO 00000KT 1/4SM FG CLR 08/07 A3014 RMK AO2 SLP206
                 T00830072 53005 =
2018-12-15 15:39 METAR KTAN 152039Z AUTO 00000KT 1/2SM FG CLR 09/08 A3014 RMK AO2 T00940083 =
2018-12-15 15:32 METAR KTAN 152032Z AUTO 00000KT 1 1/4SM BR CLR 09/08 A3014 RMK AO2 T00890083 =
2018-12-15 14:52 METAR KTAN 151952Z AUTO 02003KT 9SM CLR 11/09 A3013 RMK AO2 SLP203 T01060089 =
2018-12-15 13:52 METAR KTAN 151852Z AUTO 01003KT 10SM CLR 11/09 A3012 RMK AO2 SLP200 T01110089 =
2018-12-15 13:33 METAR KTAN 151833Z AUTO 00000KT 10SM SCT005 11/09 A3012 RMK AO2 T01110089 =
2018-12-15 13:23 METAR KTAN 151823Z AUTO 00000KT 9SM BKN005 BKN060 12/09 A3012 RMK AO2 T01170094
                 =
2018-12-15 13:03 METAR KTAN 151803Z AUTO 00000KT 10SM FEW005 BKN070 11/09 A3012 RMK AO2 T01110094
                 =
2018-12-15 12:52 METAR KTAN 151752Z AUTO 00000KT 10SM FEW048 SCT055 OVC070 11/09 A3012 RMK AO2
                 SLP201 60005 T01110089 10111 20094 56028 =
2018-12-15 11:52 METAR KTAN 151652Z AUTO 00000KT 10SM FEW004 OVC046 11/09 A3014 RMK AO2 SLP207
                 T01060089 =
2018-12-15 11:06 METAR KTAN 151606Z AUTO 00000KT 10SM FEW004 BKN050 OVC070 11/09 A3016 RMK AO2
                 T01060089 =
2018-12-15 10:52 METAR KTAN 151552Z AUTO 00000KT 10SM BKN060 OVC075 10/09 A3017 RMK AO2 RAE09
                 SLP217 P0000 T01000089 =
2018-12-15 10:10 METAR KTAN 151510Z AUTO 00000KT 6SM BR FEW028 SCT035 OVC055 10/08 A3020 RMK AO2
                 RAE09 P0000 T01000083 =
2018-12-15 10:00 METAR KTAN 151500Z AUTO 00000KT 2SM -RA BR FEW017 BKN036 OVC046 09/09 A3020 RMK
                 AO2 P0000 T00940089 =
2018-12-15 09:52 METAR KTAN 151452Z AUTO 00000KT 1 1/2SM -RA BR BKN018 BKN028 OVC034 09/09 A3021
                 RMK AO2 SLP229 P0003 60005 T00940089 51004 =
2018-12-15 09:33 METAR KTAN 151433Z AUTO 33003KT 1 1/4SM -RA BR BKN016 OVC023 09/08 A3022 RMK AO2
                 P0002 T00940083 =
2018-12-15 09:22 METAR KTAN 151422Z AUTO 00000KT 1SM -RA BR FEW004 BKN012 OVC021 09/08 A3022 RMK
                 AO2 P0002 T00940083 =
2018-12-15 09:15 METAR KTAN 151415Z AUTO 00000KT 1SM -RA BR FEW005 BKN008 OVC021 09/08 A3021 RMK
                 AO2 P0002 T00940083 =
2018-12-15 09:03 METAR KTAN 151403Z AUTO 00000KT 1SM -RA BR BKN005 OVC019 09/09 A3021 RMK AO2
                 P0001 T00940089 =
2018-12-15 08:56 METAR KTAN 151356Z AUTO 00000KT 1SM -RA BR BKN004 BKN012 OVC019 09/08 A3021 RMK
                 AO2 P0000 T00940083 =
2018-12-15 08:52 METAR KTAN 151352Z AUTO 00000KT 1SM -RA BR SCT004 SCT012 OVC019 09/08 A3021 RMK
                 AO2 SLP230 P0002 T00940083 =
2018-12-15 08:47 METAR KTAN 151347Z AUTO 00000KT 1 3/4SM -RA BR FEW004 FEW012 OVC019 09/08 A3021
                 RMK AO2 P0001 =
2018-12-15 08:34 METAR KTAN 151334Z AUTO 00000KT 3SM -RA BR FEW004 OVC018 09/08 A3020 RMK AO2
                 P0001 T00940083 =
2018-12-15 08:19 METAR KTAN 151319Z AUTO 00000KT 1 3/4SM -RA BR SCT004 OVC018 09/08 A3020 RMK AO2
                 P0000 T00940083 =
2018-12-15 08:16 METAR KTAN 151316Z AUTO 00000KT 2SM -RA BR BKN004 OVC018 09/08 A3020 RMK AO2
                 P0000 T00940083 =
2018-12-15 07:52 METAR KTAN 151252Z AUTO 22003KT 5SM -RA BR BKN005 OVC018 09/08 A3020 RMK AO2
                 RAB04 SLP225 P0000 T00940078 =
2018-12-15 06:59 METAR KTAN 151159Z AUTO 21003KT 7SM BKN006 OVC013 09/08 A3018 RMK AO2 CIG
                 004V009 T00940083 =
2018-12-15 06:52 METAR KTAN 151152Z AUTO 24004KT 6SM BR SCT005 OVC014 09/08 A3019 RMK AO2 SLP223
                 60000 T00940083 10100 20094 53004 =
2018-12-15 06:01 METAR KTAN 151101Z AUTO 22005KT 7SM BKN005 OVC012 09/08 A3017 RMK AO2 T00940083
                 =
2018-12-15 05:52 METAR KTAN 151052Z AUTO 21004KT 8SM BKN006 OVC012 09/08 A3017 RMK AO2 SLP216
                 T00940083 =
2018-12-15 05:49 METAR KTAN 151049Z AUTO 21006KT 8SM BKN006 OVC010 09/08 A3017 RMK AO2 =
2018-12-15 05:35 METAR KTAN 151035Z AUTO VRB05KT 9SM SCT006 OVC010 09/08 A3016 RMK AO2 T00940083
                 =
2018-12-15 04:52 METAR KTAN 150952Z AUTO 23005KT 10SM BKN006 OVC012 09/08 A3018 RMK AO2 RAB31E51
                 SLP219 P0000 T00940083 =
2018-12-15 04:10 METAR KTAN 150910Z AUTO 24004KT 10SM BKN006 OVC047 09/08 A3018 RMK AO2 CIG
                 005V009 T00940083 =
2018-12-15 03:52 METAR KTAN 150852Z AUTO 24004KT 10SM BKN005 OVC049 09/08 A3018 RMK AO2 SLP219
                 T00940083 58014 =
2018-12-15 02:52 METAR KTAN 150752Z AUTO 23004KT 10SM OVC005 09/08 A3020 RMK AO2 SLP226 T00940083
                 =
2018-12-15 02:31 METAR KTAN 150731Z AUTO 22007KT 10SM OVC005 09/08 A3020 RMK AO2 T00940078 =
2018-12-15 01:52 METAR KTAN 150652Z AUTO 22005KT 10SM OVC006 09/08 A3021 RMK AO2 SLP230 T00940078
                 =
2018-12-15 01:18 METAR KTAN 150618Z AUTO 21008KT 10SM OVC005 09/08 A3021 RMK AO2 T00940078 =
2018-12-15 00:52 METAR KTAN 150552Z AUTO 21008KT 9SM OVC004 09/08 A3022 RMK AO2 SLP233 T00890078
                 10089 20028 56020 =
2018-12-15 00:18 METAR KTAN 150518Z AUTO 22005KT 9SM OVC004 09/07 A3023 RMK AO2 T00890072 =
2018-12-14 23:52 METAR KTAN 150452Z AUTO 22007KT 9SM OVC005 08/07 A3023 RMK AO2 SLP237 T00830067
                 400941078 =
2018-12-14 23:35 METAR KTAN 150435Z AUTO 21003KT 9SM OVC005 08/07 A3024 RMK AO2 T00780067 =
2018-12-14 22:52 METAR KTAN 150352Z AUTO 21004KT 9SM OVC004 08/06 A3026 RMK AO2 SLP248 T00780061
                 =

Support USWX by starting your Amazon purchase here.